createdAt,value
2022-08-14T00:02:51.499Z,25.00
2022-08-14T00:08:15.191Z,25.04
2022-08-14T00:13:59.766Z,25.07
2022-08-14T00:19:25.286Z,25.03
2022-08-14T00:24:50.519Z,25.05
2022-08-14T00:30:17.362Z,24.99
2022-08-14T00:36:39.143Z,24.99
2022-08-14T00:41:23.884Z,24.93
2022-08-14T00:46:49.415Z,24.88
2022-08-14T00:52:18.333Z,24.76
2022-08-14T00:57:43.360Z,24.67
2022-08-14T01:03:10.308Z,24.69
2022-08-14T01:08:51.335Z,24.55
2022-08-14T01:14:27.553Z,24.41
2022-08-14T01:20:27.839Z,24.41
2022-08-14T01:25:55.208Z,24.34
2022-08-14T01:31:20.501Z,24.23
2022-08-14T01:36:43.676Z,24.11
2022-08-14T01:42:09.629Z,24.10
2022-08-14T01:48:03.085Z,24.05
2022-08-14T01:53:26.889Z,24.06
2022-08-14T01:58:58.407Z,23.99
2022-08-14T02:04:55.580Z,23.97
2022-08-14T02:10:08.173Z,23.93
2022-08-14T02:15:40.785Z,23.91
2022-08-14T02:21:07.661Z,23.93
2022-08-14T02:26:32.369Z,24.00
2022-08-14T02:32:30.115Z,23.80
2022-08-14T02:37:57.169Z,23.72
2022-08-14T02:43:22.740Z,23.61
2022-08-14T02:49:02.630Z,23.55
2022-08-14T02:54:29.178Z,23.50
2022-08-14T02:59:52.722Z,23.42
2022-08-14T03:05:17.434Z,23.41
2022-08-14T03:10:42.026Z,23.34
2022-08-14T03:16:26.600Z,23.32
2022-08-14T03:21:52.966Z,23.18
2022-08-14T03:27:16.496Z,23.16
2022-08-14T03:32:39.637Z,23.09
2022-08-14T03:39:11.618Z,23.09
2022-08-14T03:43:57.498Z,23.00
2022-08-14T03:49:28.318Z,23.11
2022-08-14T03:54:53.172Z,23.13
2022-08-14T04:00:44.244Z,23.10
2022-08-14T04:06:00.119Z,23.01
2022-08-14T04:11:24.863Z,22.97
2022-08-14T04:16:48.102Z,22.81
2022-08-14T04:22:11.506Z,22.71
2022-08-14T04:28:01.813Z,22.60
2022-08-14T04:33:20.952Z,22.45
2022-08-14T04:39:02.404Z,22.26
2022-08-14T04:44:36.967Z,22.30
2022-08-14T04:50:00.369Z,22.38
2022-08-14T04:55:27.797Z,22.53
2022-08-14T05:00:53.410Z,22.63
2022-08-14T05:06:38.161Z,22.68
2022-08-14T05:13:11.953Z,22.74
2022-08-14T05:17:53.937Z,22.77
2022-08-14T05:23:28.575Z,22.74
2022-08-14T05:28:51.784Z,22.69
2022-08-14T05:34:16.290Z,22.73
2022-08-14T05:39:40.770Z,22.72
2022-08-14T05:45:11.243Z,22.75
2022-08-14T05:50:38.298Z,22.87
2022-08-14T05:56:01.631Z,22.82
2022-08-14T06:01:26.077Z,22.96
2022-08-14T06:06:55.794Z,22.79
2022-08-14T06:12:31.717Z,22.96
2022-08-14T06:18:04.487Z,23.11
2022-08-14T06:23:28.998Z,23.11
2022-08-14T06:28:52.811Z,23.24
2022-08-14T06:35:03.560Z,23.21
2022-08-14T06:40:01.770Z,22.59
2022-08-14T06:45:28.285Z,23.26
2022-08-14T06:50:52.266Z,23.28
2022-08-14T06:56:16.716Z,23.95
2022-08-14T07:01:57.534Z,24.93
2022-08-14T07:07:20.663Z,25.82
2022-08-14T07:13:01.303Z,26.16
2022-08-14T07:18:27.369Z,26.72
2022-08-14T07:23:51.943Z,27.16
2022-08-14T07:29:17.711Z,26.98
2022-08-14T07:34:45.925Z,27.21
2022-08-14T07:40:10.501Z,27.32
2022-08-14T07:45:36.467Z,27.69
2022-08-14T07:51:03.826Z,27.38
2022-08-14T07:56:48.281Z,27.44
2022-08-14T08:02:18.779Z,27.87
2022-08-14T08:07:46.741Z,27.80
2022-08-14T08:13:15.533Z,27.63
2022-08-14T08:18:40.417Z,27.58
2022-08-14T08:24:04.432Z,27.86
2022-08-14T08:29:29.270Z,27.71
2022-08-14T08:34:56.357Z,27.93
2022-08-14T08:40:30.954Z,27.63
2022-08-14T08:45:57.158Z,27.96
2022-08-14T08:51:33.563Z,28.18
2022-08-14T08:56:58.036Z,28.29
2022-08-14T09:02:21.086Z,28.51
2022-08-14T09:07:45.578Z,28.57
2022-08-14T09:13:13.091Z,28.70
2022-08-14T09:18:38.248Z,28.21
2022-08-14T09:24:28.893Z,28.96
2022-08-14T09:29:46.008Z,29.22
2022-08-14T09:35:22.479Z,29.32
2022-08-14T09:40:52.560Z,29.16
2022-08-14T09:46:16.979Z,29.31
2022-08-14T09:51:58.588Z,29.52
2022-08-14T09:57:29.019Z,29.77
2022-08-14T10:02:54.026Z,29.98
2022-08-14T10:08:25.516Z,29.85
2022-08-14T10:13:54.354Z,30.22
2022-08-14T10:19:22.647Z,30.18
2022-08-14T10:24:47.134Z,30.34
2022-08-14T10:30:22.471Z,30.36
2022-08-14T10:35:48.103Z,30.59
2022-08-14T10:41:13.317Z,30.51
2022-08-14T10:47:37.303Z,30.30
2022-08-14T10:52:33.979Z,30.65
2022-08-14T10:57:57.850Z,30.94
2022-08-14T11:03:26.766Z,31.13
2022-08-14T11:09:23.476Z,31.06
2022-08-14T11:14:58.513Z,31.05
2022-08-14T11:20:26.149Z,31.27
2022-08-14T11:25:53.406Z,31.46
2022-08-14T11:31:19.784Z,31.76
2022-08-14T11:37:03.963Z,31.59
2022-08-14T11:42:56.921Z,31.55
2022-08-14T11:49:02.736Z,31.58
2022-08-14T11:54:06.319Z,31.54
2022-08-14T11:59:33.540Z,31.34
2022-08-14T12:04:57.128Z,31.32
2022-08-14T12:10:26.498Z,31.26
2022-08-14T12:15:59.820Z,31.38
2022-08-14T12:21:32.214Z,31.22
2022-08-14T12:26:57.730Z,31.28
2022-08-14T12:32:22.190Z,31.54
2022-08-14T12:37:50.822Z,31.57
2022-08-14T12:43:15.768Z,31.77
2022-08-14T12:48:46.386Z,31.85
2022-08-14T12:54:26.456Z,31.93
2022-08-14T12:59:52.613Z,32.15
2022-08-14T13:05:16.281Z,32.10
2022-08-14T13:10:47.202Z,31.98
2022-08-14T13:16:20.184Z,31.89
2022-08-14T13:22:04.793Z,32.14
2022-08-14T13:27:29.439Z,32.40
2022-08-14T13:33:00.229Z,32.41
2022-08-14T13:38:25.453Z,32.47
2022-08-14T13:43:59.437Z,32.83
2022-08-14T13:49:25.028Z,32.89
2022-08-14T13:54:55.717Z,32.87
2022-08-14T14:00:21.799Z,32.77
2022-08-14T14:05:57.713Z,32.97
2022-08-14T14:11:24.246Z,32.99
2022-08-14T14:16:48.586Z,32.87
2022-08-14T14:23:00.883Z,32.96
2022-08-14T14:28:27.037Z,32.97
2022-08-14T14:33:54.364Z,33.19
2022-08-14T14:39:25.422Z,33.19
2022-08-14T14:44:53.106Z,33.24
2022-08-14T14:50:20.987Z,33.16
2022-08-14T14:56:08.703Z,32.80
2022-08-14T15:01:37.092Z,32.62
2022-08-14T15:07:05.588Z,32.70
2022-08-14T15:12:56.375Z,32.76
2022-08-14T15:18:36.964Z,32.77
2022-08-14T15:24:00.255Z,32.86
2022-08-14T15:29:25.181Z,33.02
2022-08-14T15:34:51.175Z,32.79
2022-08-14T15:40:22.500Z,32.69
2022-08-14T15:45:47.642Z,32.73
2022-08-14T15:51:11.086Z,32.71
2022-08-14T15:56:42.706Z,32.56
2022-08-14T16:02:09.455Z,32.53
2022-08-14T16:07:35.174Z,32.47
2022-08-14T16:13:00.215Z,32.32
2022-08-14T16:18:26.076Z,32.21
2022-08-14T16:23:52.997Z,32.12
2022-08-14T16:29:17.461Z,31.98
2022-08-14T16:34:48.488Z,32.03
2022-08-14T16:40:15.851Z,32.02
2022-08-14T16:45:43.717Z,31.95
2022-08-14T16:51:08.947Z,31.88
2022-08-14T16:56:36.392Z,31.91
2022-08-14T17:02:01.491Z,31.89
2022-08-14T17:07:29.827Z,31.86
2022-08-14T17:13:18.183Z,31.83
2022-08-14T17:18:43.634Z,31.72
2022-08-14T17:24:57.850Z,31.65
2022-08-14T17:29:57.688Z,31.66
2022-08-14T17:35:57.520Z,31.67
2022-08-14T17:41:27.044Z,31.67
2022-08-14T17:47:10.123Z,31.58
2022-08-14T17:52:40.687Z,31.57
2022-08-14T17:58:20.371Z,31.43
2022-08-14T18:03:53.222Z,31.39
2022-08-14T18:09:24.709Z,31.29
2022-08-14T18:14:52.747Z,31.10
2022-08-14T18:21:23.785Z,30.91
2022-08-14T18:26:00.041Z,30.72
2022-08-14T18:31:43.921Z,30.56
2022-08-14T18:37:21.066Z,30.38
2022-08-14T18:42:46.270Z,30.21
2022-08-14T18:48:51.063Z,30.01
2022-08-14T18:54:30.002Z,29.88
2022-08-14T18:59:57.509Z,29.61
2022-08-14T19:05:57.833Z,29.48
2022-08-14T19:11:45.410Z,29.29
2022-08-14T19:17:42.884Z,29.13
2022-08-14T19:23:42.133Z,28.99
2022-08-14T19:29:23.506Z,28.85
2022-08-14T19:34:52.269Z,28.63
2022-08-14T19:40:33.218Z,28.63
2022-08-14T19:45:56.842Z,28.53
2022-08-14T19:51:20.130Z,28.35
2022-08-14T19:56:47.348Z,28.21
2022-08-14T20:02:11.286Z,28.14
2022-08-14T20:07:59.619Z,28.13
2022-08-14T20:13:32.089Z,28.08
2022-08-14T20:18:57.341Z,27.97
2022-08-14T20:24:31.530Z,27.85
2022-08-14T20:30:34.328Z,27.69
2022-08-14T20:35:57.949Z,27.61
2022-08-14T20:41:22.194Z,27.62
2022-08-14T20:46:47.895Z,27.58
2022-08-14T20:52:18.851Z,27.57
2022-08-14T20:58:10.072Z,27.55
2022-08-14T21:03:56.400Z,27.31
2022-08-14T21:10:03.461Z,27.43
2022-08-14T21:15:13.862Z,27.36
2022-08-14T21:20:39.247Z,27.30
2022-08-14T21:26:03.693Z,27.26
2022-08-14T21:31:30.110Z,27.14
2022-08-14T21:36:55.523Z,27.11
2022-08-14T21:42:18.661Z,27.02
2022-08-14T21:47:44.753Z,26.93
2022-08-14T21:53:09.429Z,26.88
2022-08-14T21:58:52.300Z,26.84
2022-08-14T22:04:32.113Z,26.75
2022-08-14T22:09:59.294Z,26.72
2022-08-14T22:15:22.915Z,26.70
2022-08-14T22:20:46.059Z,26.61
2022-08-14T22:26:10.768Z,26.56
2022-08-14T22:31:45.907Z,26.46
2022-08-14T22:37:11.445Z,26.36
2022-08-14T22:42:37.577Z,26.22
2022-08-14T22:48:01.117Z,26.21
2022-08-14T22:53:24.218Z,26.15
2022-08-14T22:58:54.559Z,26.09
2022-08-14T23:04:35.649Z,26.02
2022-08-14T23:10:31.929Z,25.94
2022-08-14T23:15:46.619Z,25.83
2022-08-14T23:21:10.800Z,25.79
2022-08-14T23:26:49.539Z,25.71
2022-08-14T23:32:19.115Z,25.65
2022-08-14T23:37:43.801Z,25.63
2022-08-14T23:43:09.416Z,25.57
2022-08-14T23:48:34.750Z,25.53
2022-08-14T23:54:00.302Z,25.49
2022-08-14T23:59:25.730Z,25.46
